Time;durP1;ratioP1;P1;durP2;ratioP2;P2;SDS_P1;SDS_P2;PMS_P1;PMS_P2;Temp;Humidity;BMP_temperature;BMP_pressure;BME280_temperature;BME280_humidity;BME280_pressure;Samples;Min_cycle;Max_cycle;Signal;HPM_P1;HPM_P2
2021/09/05 00:01:04;;;;;;;9.63;5.50;;;;;;;9.53;92.88;95692.13;5002902;28;20061;-75
2021/09/05 00:03:29;;;;;;;12.20;5.65;;;;;;;9.39;93.33;95685.78;5020603;28;20084;-75
2021/09/05 00:05:55;;;;;;;10.30;6.15;;;;;;;9.39;93.07;95685.78;5028497;28;20042;-75
2021/09/05 00:08:20;;;;;;;9.63;5.80;;;;;;;9.47;92.66;95687.91;5028565;28;20085;-76
2021/09/05 00:10:46;;;;;;;9.88;5.43;;;;;;;9.52;92.31;95690.56;5028577;28;20045;-74
2021/09/05 00:13:12;;;;;;;10.65;5.60;;;;;;;9.48;92.50;95700.00;5015171;28;20041;-75
2021/09/05 00:15:37;;;;;;;11.93;5.72;;;;;;;9.36;92.80;95702.81;5030636;28;20399;-75
2021/09/05 00:18:03;;;;;;;8.43;5.28;;;;;;;9.40;92.08;95703.13;5027389;28;20213;-75
2021/09/05 00:20:28;;;;;;;9.77;5.90;;;;;;;9.02;95.09;95707.66;5027711;28;20042;-75
2021/09/05 00:22:54;;;;;;;10.73;5.90;;;;;;;9.15;94.61;95707.22;5013218;28;20073;-75
2021/09/05 00:25:19;;;;;;;10.95;6.68;;;;;;;9.01;96.63;95706.09;5025346;28;20053;-75
2021/09/05 00:27:45;;;;;;;12.15;6.72;;;;;;;9.05;96.58;95712.41;5028909;28;20673;-75
2021/09/05 00:30:10;;;;;;;9.55;5.82;;;;;;;9.21;95.89;95709.84;5024868;28;20037;-75
2021/09/05 00:32:36;;;;;;;13.85;6.07;;;;;;;9.49;94.22;95713.91;5026364;28;20048;-75
2021/09/05 00:35:02;;;;;;;11.80;6.15;;;;;;;9.52;92.88;95711.59;5026388;28;20045;-75
2021/09/05 00:37:27;;;;;;;11.40;5.75;;;;;;;9.46;93.84;95706.56;5027119;28;20523;-75
2021/09/05 00:39:53;;;;;;;9.52;5.53;;;;;;;9.52;92.74;95710.78;5026022;28;20123;-75
2021/09/05 00:42:26;;;;;;;10.38;6.00;;;;;;;9.39;93.42;95712.03;5017586;28;20053;-75
2021/09/05 00:44:52;;;;;;;9.40;5.80;;;;;;;9.34;93.99;95717.28;5011465;28;20041;-75
2021/09/05 00:47:18;;;;;;;10.35;5.95;;;;;;;9.35;94.05;95708.34;5026366;28;20045;-75
2021/09/05 00:49:44;;;;;;;11.23;6.50;;;;;;;9.19;94.59;95713.53;5025919;28;20736;-73
2021/09/05 00:52:11;;;;;;;11.60;6.20;;;;;;;9.37;94.54;95711.50;5023422;28;20041;-75
2021/09/05 00:54:41;;;;;;;12.15;6.93;;;;;;;9.41;95.42;95715.22;5022887;28;20041;-75
2021/09/05 00:57:11;;;;;;;11.07;6.22;;;;;;;9.41;94.80;95720.47;5027602;28;20045;-75
2021/09/05 00:59:38;;;;;;;10.13;6.00;;;;;;;9.24;94.92;95719.84;5023410;28;20054;-74
2021/09/05 01:02:03;;;;;;;11.85;6.93;;;;;;;9.28;95.42;95715.66;5016053;28;20057;-75
2021/09/05 01:04:29;;;;;;;12.43;6.70;;;;;;;9.22;95.36;95711.44;5027208;28;20061;-76
2021/09/05 01:06:54;;;;;;;12.38;6.05;;;;;;;9.22;94.84;95712.22;5027388;28;20431;-75
2021/09/05 01:09:20;;;;;;;13.07;6.57;;;;;;;9.18;94.28;95711.94;5011175;28;20503;-76
2021/09/05 01:11:46;;;;;;;9.73;6.40;;;;;;;9.25;94.73;95710.91;5026962;28;20064;-76
2021/09/05 01:14:12;;;;;;;11.20;6.40;;;;;;;9.23;94.85;95715.66;5026229;28;20049;-76
2021/09/05 01:16:41;;;;;;;10.85;6.20;;;;;;;9.26;93.55;95712.50;5018456;28;20457;-75
2021/09/05 01:19:09;;;;;;;11.18;6.03;;;;;;;9.12;94.41;95706.91;5027981;28;20049;-76
2021/09/05 01:21:35;;;;;;;11.05;6.05;;;;;;;9.10;93.55;95715.03;5020992;28;20530;-76
2021/09/05 01:24:02;;;;;;;10.85;6.18;;;;;;;9.02;94.30;95718.16;5021543;28;20132;-75
2021/09/05 01:26:30;;;;;;;11.15;6.18;;;;;;;9.04;94.21;95721.31;5026760;28;20065;-75
2021/09/05 01:28:57;;;;;;;9.45;5.30;;;;;;;8.97;93.40;95712.88;5015653;28;20116;-75
2021/09/05 01:31:23;;;;;;;11.30;5.68;;;;;;;8.91;93.51;95716.53;5025841;28;20091;-75
2021/09/05 01:33:49;;;;;;;13.25;5.78;;;;;;;8.90;93.30;95720.19;5012552;28;20119;-76
2021/09/05 01:36:16;;;;;;;10.25;6.18;;;;;;;8.89;93.53;95714.13;5027555;28;20514;-75
2021/09/05 01:38:41;;;;;;;10.80;6.00;;;;;;;8.88;94.30;95711.75;5028480;28;20049;-75
2021/09/05 01:41:07;;;;;;;10.30;5.82;;;;;;;8.91;93.64;95721.78;5013785;28;20507;-76
2021/09/05 01:43:33;;;;;;;9.60;5.93;;;;;;;8.89;93.64;95718.59;5017572;28;20483;-76
2021/09/05 01:45:59;;;;;;;11.98;5.50;;;;;;;8.76;93.77;95715.34;5021117;28;20507;-75
2021/09/05 01:48:25;;;;;;;10.15;5.60;;;;;;;8.72;94.36;95718.75;5023739;28;20038;-76
2021/09/05 01:50:51;;;;;;;9.88;5.68;;;;;;;8.70;94.00;95731.34;5027905;28;20049;-75
2021/09/05 01:53:16;;;;;;;9.75;5.55;;;;;;;8.57;94.38;95722.06;5022565;28;20049;-75
2021/09/05 01:55:42;;;;;;;11.18;5.75;;;;;;;8.72;94.24;95730.06;5027093;28;20037;-75
2021/09/05 01:58:07;;;;;;;11.90;6.13;;;;;;;8.68;94.18;95728.97;5026474;28;20091;-76
2021/09/05 02:00:33;;;;;;;10.02;5.82;;;;;;;8.60;94.63;95729.41;5018858;28;20116;-76
2021/09/05 02:02:59;;;;;;;10.48;5.90;;;;;;;8.56;94.09;95728.34;5014609;28;20142;-76
2021/09/05 02:05:24;;;;;;;10.50;5.93;;;;;;;8.65;93.72;95734.72;5025984;28;20048;-74
2021/09/05 02:07:50;;;;;;;12.23;5.80;;;;;;;8.55;94.02;95734.63;5027889;28;20057;-75
2021/09/05 02:10:15;;;;;;;9.48;5.47;;;;;;;8.47;93.84;95734.03;5010612;28;20064;-76
2021/09/05 02:12:41;;;;;;;11.02;6.05;;;;;;;8.42;94.08;95736.59;5027633;28;20088;-76
2021/09/05 02:15:07;;;;;;;12.10;6.50;;;;;;;8.36;93.79;95737.59;5028241;28;20172;-75
2021/09/05 02:17:33;;;;;;;10.82;5.70;;;;;;;8.31;94.37;95734.94;5017281;28;20049;-75
2021/09/05 02:19:58;;;;;;;10.63;5.53;;;;;;;8.40;93.35;95743.13;5008519;28;20046;-75
2021/09/05 02:22:24;;;;;;;10.30;5.32;;;;;;;8.38;93.33;95739.97;5009190;28;20038;-76
2021/09/05 02:24:49;;;;;;;13.23;5.82;;;;;;;8.34;93.50;95747.53;5028182;28;20060;-75
2021/09/05 02:27:15;;;;;;;16.10;6.97;;;;;;;8.39;93.68;95744.97;5027467;28;20100;-75
2021/09/05 02:29:41;;;;;;;12.95;5.93;;;;;;;8.24;93.56;95742.19;5019353;28;20091;-75
2021/09/05 02:32:06;;;;;;;12.00;5.93;;;;;;;8.24;94.00;95744.81;5015905;28;20046;-76
2021/09/05 02:34:32;;;;;;;11.40;5.70;;;;;;;8.01;94.34;95740.69;5008285;28;20112;-75
2021/09/05 02:36:57;;;;;;;10.35;5.45;;;;;;;7.93;94.94;95739.28;5008222;28;20050;-75
2021/09/05 02:39:23;;;;;;;9.98;5.50;;;;;;;7.91;95.07;95731.66;5022469;28;20408;-75
2021/09/05 02:41:48;;;;;;;10.02;5.57;;;;;;;8.01;94.99;95736.22;5024007;28;20722;-75
2021/09/05 02:44:14;;;;;;;9.73;5.93;;;;;;;8.10;94.51;95740.00;5030340;28;20813;-75
2021/09/05 02:46:39;;;;;;;10.93;6.15;;;;;;;8.11;94.01;95744.19;5031872;28;20502;-75
2021/09/05 02:49:05;;;;;;;9.48;5.30;;;;;;;7.98;94.29;95739.34;5028364;28;20045;-76
2021/09/05 02:51:30;;;;;;;9.98;5.53;;;;;;;8.01;93.82;95746.69;5030491;28;20752;-76
2021/09/05 02:53:56;;;;;;;10.93;5.53;;;;;;;7.97;93.53;95745.59;5013730;28;20042;-75
2021/09/05 02:56:21;;;;;;;9.10;5.30;;;;;;;7.87;93.51;95745.50;5023857;28;20045;-75
2021/09/05 02:58:47;;;;;;;11.13;5.82;;;;;;;7.74;94.18;95737.00;5030529;28;20043;-76
2021/09/05 03:01:13;;;;;;;9.98;5.60;;;;;;;7.83;93.91;95733.94;5027896;28;20463;-76
2021/09/05 03:03:38;;;;;;;11.70;5.47;;;;;;;7.82;93.61;95737.59;5023148;28;20045;-76
2021/09/05 03:06:04;;;;;;;9.55;5.30;;;;;;;7.76;94.54;95728.91;5029586;28;20041;-75
2021/09/05 03:08:29;;;;;;;9.07;5.10;;;;;;;7.71;95.03;95742.72;5013439;28;20141;-75
2021/09/05 03:10:55;;;;;;;8.70;5.25;;;;;;;7.76;95.12;95734.91;5026893;28;20045;-76
2021/09/05 03:13:20;;;;;;;10.65;6.03;;;;;;;7.66;95.59;95740.03;5027847;28;20499;-76
2021/09/05 03:15:46;;;;;;;10.30;5.40;;;;;;;7.71;94.63;95747.94;5029396;28;20052;-75
2021/09/05 03:18:11;;;;;;;11.40;5.60;;;;;;;7.65;94.94;95742.91;5031184;28;20045;-75
2021/09/05 03:20:37;;;;;;;11.95;5.38;;;;;;;7.59;95.66;95744.69;5007374;28;20041;-75
2021/09/05 03:23:03;;;;;;;12.90;5.82;;;;;;;7.73;95.57;95753.75;5020297;28;20137;-75
2021/09/05 03:25:28;;;;;;;10.65;5.72;;;;;;;7.71;95.07;95758.44;5028760;28;20042;-75
2021/09/05 03:27:54;;;;;;;8.82;5.68;;;;;;;7.71;95.49;95750.56;5030027;28;20106;-75
2021/09/05 03:30:20;;;;;;;11.93;5.80;;;;;;;7.78;94.44;95748.56;5030952;28;20503;-75
2021/09/05 03:32:45;;;;;;;9.40;5.47;;;;;;;7.85;93.81;95755.44;5017053;28;20037;-75
2021/09/05 03:35:11;;;;;;;10.10;5.63;;;;;;;7.75;94.29;95759.53;5031203;28;20041;-75
2021/09/05 03:37:37;;;;;;;10.55;5.57;;;;;;;7.75;94.65;95759.53;5029211;28;20042;-74
2021/09/05 03:40:02;;;;;;;9.23;5.75;;;;;;;7.65;94.27;95769.88;5030132;28;20559;-76
2021/09/05 03:42:28;;;;;;;9.48;5.25;;;;;;;7.55;95.20;95769.78;5016252;28;20064;-76
2021/09/05 03:44:53;;;;;;;13.65;5.43;;;;;;;7.65;95.01;95766.50;5031142;28;20136;-77
2021/09/05 03:47:19;;;;;;;10.18;5.88;;;;;;;7.70;94.11;95769.97;5029864;28;20049;-74
2021/09/05 03:49:44;;;;;;;9.02;5.35;;;;;;;7.57;95.21;95773.72;5016014;28;20498;-76
2021/09/05 03:52:10;;;;;;;11.70;6.05;;;;;;;7.51;95.50;95774.69;5026650;28;20033;-76
2021/09/05 03:54:36;;;;;;;10.00;6.13;;;;;;;7.56;95.72;95771.38;5011184;28;20049;-75
2021/09/05 03:57:01;;;;;;;12.27;5.90;;;;;;;7.67;95.38;95767.84;5026956;28;20053;-75
2021/09/05 03:59:27;;;;;;;12.63;5.57;;;;;;;7.75;94.16;95775.25;5029406;28;20110;-75
2021/09/05 04:01:52;;;;;;;9.38;5.40;;;;;;;7.76;94.48;95771.59;5005484;28;20054;-76
2021/09/05 04:04:18;;;;;;;9.48;5.90;;;;;;;7.76;94.63;95763.72;5019398;28;20033;-76
2021/09/05 04:06:49;;;;;;;10.52;5.85;;;;;;;7.72;93.74;95765.25;5012544;28;20033;-75
2021/09/05 04:10:08;;;;;;;10.57;5.57;;;;;;;7.63;94.33;95764.13;5029544;28;20045;-75
2021/09/05 04:12:03;;;;;;;9.75;5.70;;;;;;;7.62;94.69;95765.91;5011063;28;20049;-76
2021/09/05 04:14:29;;;;;;;9.13;5.95;;;;;;;7.53;94.22;95761.34;5021121;28;20365;-75
2021/09/05 04:16:54;;;;;;;9.55;5.40;;;;;;;7.44;94.84;95774.88;5012329;28;20084;-76
2021/09/05 04:19:20;;;;;;;8.88;5.50;;;;;;;7.46;94.98;95767.56;5028692;28;20124;-75
2021/09/05 04:21:45;;;;;;;9.85;5.70;;;;;;;7.34;96.10;95780.00;5021137;28;20049;-74
2021/09/05 04:24:10;;;;;;;10.25;5.70;;;;;;;7.42;94.79;95771.69;5011759;28;20042;-76
2021/09/05 04:26:36;;;;;;;11.25;5.75;;;;;;;7.46;94.00;95772.81;5030097;28;20167;-76
2021/09/05 04:29:02;;;;;;;10.32;5.70;;;;;;;7.51;94.60;95768.66;5029618;28;20426;-74
2021/09/05 04:31:27;;;;;;;10.10;5.93;;;;;;;7.34;94.53;95772.13;5011468;28;20049;-76
2021/09/05 04:33:52;;;;;;;10.07;5.60;;;;;;;7.29;94.67;95777.28;5012367;28;20042;-76
2021/09/05 04:36:18;;;;;;;11.32;5.25;;;;;;;7.38;94.08;95775.03;5027125;28;20414;-75
2021/09/05 04:38:43;;;;;;;11.82;5.95;;;;;;;7.51;93.77;95773.91;5011963;28;20049;-75
2021/09/05 04:41:09;;;;;;;12.30;5.95;;;;;;;7.45;94.53;95789.53;5027768;28;20060;-75
2021/09/05 04:43:34;;;;;;;12.43;5.63;;;;;;;7.45;94.94;95781.69;5012576;28;20042;-75
2021/09/05 04:46:00;;;;;;;10.20;5.78;;;;;;;7.46;95.45;95783.28;5023529;28;20041;-76
2021/09/05 04:48:25;;;;;;;9.80;5.53;;;;;;;7.41;95.03;95791.09;5029711;28;20080;-75
2021/09/05 04:50:51;;;;;;;14.82;6.18;;;;;;;7.43;94.83;95796.84;5006886;28;20042;-76
2021/09/05 04:53:17;;;;;;;10.02;5.32;;;;;;;7.32;95.00;95802.97;5009740;28;20091;-76
2021/09/05 04:55:42;;;;;;;10.80;6.22;;;;;;;7.24;95.75;95811.25;5019861;28;20033;-75
2021/09/05 04:58:08;;;;;;;10.55;6.18;;;;;;;7.30;96.35;95810.31;5029709;28;20041;-76
2021/09/05 05:00:33;;;;;;;9.18;5.50;;;;;;;7.31;94.56;95806.63;5028092;28;20037;-76
2021/09/05 05:02:59;;;;;;;10.35;5.55;;;;;;;7.26;95.06;95814.44;5023207;28;20111;-75
2021/09/05 05:05:25;;;;;;;11.43;5.88;;;;;;;7.44;94.95;95819.41;5026872;28;20046;-75
2021/09/05 05:07:50;;;;;;;13.20;6.10;;;;;;;7.34;95.19;95816.66;5028665;28;20087;-76
2021/09/05 05:10:16;;;;;;;9.18;5.22;;;;;;;7.24;94.73;95816.47;5008537;28;20041;-76
2021/09/05 05:12:41;;;;;;;10.10;5.93;;;;;;;7.40;95.25;95826.16;5028286;28;20049;-74
2021/09/05 05:15:07;;;;;;;11.05;5.70;;;;;;;7.44;94.63;95822.00;5028574;28;20041;-76
2021/09/05 05:17:33;;;;;;;12.70;5.88;;;;;;;7.62;94.40;95828.00;5011706;28;20095;-76
2021/09/05 05:19:58;;;;;;;11.68;6.07;;;;;;;7.69;94.56;95839.09;4996013;28;20469;-76
2021/09/05 05:22:24;;;;;;;11.32;5.47;;;;;;;7.71;94.17;95839.63;5024729;28;20072;-74
2021/09/05 05:24:49;;;;;;;11.07;5.90;;;;;;;7.72;95.51;95828.13;5019968;28;20120;-76
2021/09/05 05:27:15;;;;;;;10.57;6.38;;;;;;;7.73;94.89;95832.34;5027349;28;20048;-76
2021/09/05 05:29:41;;;;;;;10.88;5.60;;;;;;;7.62;95.39;95828.00;5026638;28;20085;-75
2021/09/05 05:32:07;;;;;;;10.05;5.90;;;;;;;7.58;96.24;95826.91;5022975;28;20121;-74
2021/09/05 05:34:32;;;;;;;9.98;5.93;;;;;;;7.68;96.13;95837.50;5025011;28;20042;-79
2021/09/05 05:37:01;;;;;;;10.63;6.20;;;;;;;7.82;95.44;95831.94;5027834;28;20137;-79
2021/09/05 05:39:27;;;;;;;11.48;5.72;;;;;;;7.87;96.18;95847.69;5019360;28;20049;-75
2021/09/05 05:41:53;;;;;;;12.52;5.88;;;;;;;7.90;96.26;95844.59;5023690;28;20046;-76
2021/09/05 05:44:18;;;;;;;9.23;5.65;;;;;;;8.06;96.64;95843.75;5026580;28;20052;-76
2021/09/05 05:46:44;;;;;;;14.05;6.15;;;;;;;8.01;97.78;95846.28;5029364;28;20056;-77
2021/09/05 05:49:09;;;;;;;9.75;5.93;;;;;;;8.12;97.67;95852.47;5027682;28;20053;-78
2021/09/05 05:51:35;;;;;;;11.82;6.43;;;;;;;8.25;98.11;95848.66;5014911;28;20056;-75
2021/09/05 05:54:00;;;;;;;10.07;6.10;;;;;;;8.29;97.93;95855.00;5022215;28;20403;-77
2021/09/05 05:56:26;;;;;;;11.48;5.82;;;;;;;8.33;98.17;95848.22;5028997;28;20037;-77
2021/09/05 05:58:51;;;;;;;9.88;5.75;;;;;;;8.57;97.71;95843.50;5025626;28;20056;-81
2021/09/05 06:01:17;;;;;;;11.68;5.93;;;;;;;8.72;97.24;95836.81;5024002;28;20055;-87
2021/09/05 06:03:42;;;;;;;9.75;6.25;;;;;;;8.74;97.07;95848.66;5028569;28;20049;-75
2021/09/05 06:06:08;;;;;;;10.55;6.10;;;;;;;8.71;97.11;95838.66;5020312;28;20045;-75
2021/09/05 06:08:33;;;;;;;11.13;6.10;;;;;;;8.78;97.58;95841.88;5022659;28;20033;-75
2021/09/05 06:10:59;;;;;;;11.20;6.13;;;;;;;8.80;97.90;95850.28;5024946;28;20053;-75
2021/09/05 06:13:24;;;;;;;11.93;6.35;;;;;;;8.86;98.29;95845.09;5026354;28;20046;-81
2021/09/05 06:15:50;;;;;;;10.27;5.60;;;;;;;8.94;98.74;95842.00;5030563;28;20037;-76
2021/09/05 06:18:15;;;;;;;11.50;5.90;;;;;;;8.98;97.38;95843.09;5026823;28;20042;-76
2021/09/05 06:20:41;;;;;;;11.52;6.20;;;;;;;8.99;98.18;95828.91;5024289;28;20041;-75
2021/09/05 06:23:06;;;;;;;12.35;6.80;;;;;;;9.11;99.10;95847.91;5015540;28;20582;-76
2021/09/05 06:25:32;;;;;;;13.55;7.15;;;;;;;9.24;100.00;95840.63;5019855;28;20099;-75
2021/09/05 06:27:57;;;;;;;11.82;6.50;;;;;;;9.27;100.00;95842.78;5023816;28;20095;-75
2021/09/05 06:30:23;;;;;;;14.88;7.85;;;;;;;9.58;100.00;95850.84;5024183;28;20426;-76
2021/09/05 06:32:48;;;;;;;13.63;7.80;;;;;;;9.62;100.00;95851.91;5016829;28;20042;-80
2021/09/05 06:35:14;;;;;;;13.70;7.70;;;;;;;9.65;100.00;95856.66;5025411;28;20071;-75
2021/09/05 06:37:39;;;;;;;13.45;8.00;;;;;;;9.67;100.00;95859.84;5024665;28;20053;-75
2021/09/05 06:40:05;;;;;;;12.35;7.38;;;;;;;9.76;100.00;95857.53;5023444;28;20772;-78
2021/09/05 06:42:31;;;;;;;15.70;8.15;;;;;;;9.85;100.00;95856.75;5010192;28;20100;-76
2021/09/05 06:44:56;;;;;;;11.40;7.03;;;;;;;9.94;100.00;95864.16;5021837;28;20499;-75
2021/09/05 06:47:22;;;;;;;13.48;7.70;;;;;;;10.05;100.00;95865.78;5023082;28;20068;-75
2021/09/05 06:49:47;;;;;;;14.75;8.68;;;;;;;10.18;100.00;95865.31;5019533;28;20733;-76
2021/09/05 06:52:13;;;;;;;15.98;9.52;;;;;;;10.57;100.00;95872.03;5007096;28;20794;-74
2021/09/05 06:54:39;;;;;;;14.07;8.98;;;;;;;10.91;100.00;95861.81;5019480;28;20045;-75
2021/09/05 06:57:06;;;;;;;15.50;9.43;;;;;;;11.37;100.00;95868.16;5024791;28;20084;-75
2021/09/05 06:59:31;;;;;;;16.83;9.73;;;;;;;11.40;100.00;95867.63;5026780;28;20088;-81
2021/09/05 07:01:57;;;;;;;15.35;8.68;;;;;;;11.66;100.00;95870.22;5009564;28;20054;-75
2021/09/05 07:04:22;;;;;;;14.10;8.77;;;;;;;11.92;100.00;95869.09;5024230;28;20120;-76
2021/09/05 07:06:48;;;;;;;14.43;8.63;;;;;;;11.90;100.00;95871.19;5020018;28;20034;-76
2021/09/05 07:09:13;;;;;;;14.40;9.15;;;;;;;11.88;100.00;95870.69;5007433;28;20050;-75
2021/09/05 07:11:39;;;;;;;13.77;8.23;;;;;;;11.83;100.00;95870.69;5005767;28;20076;-76
2021/09/05 07:14:04;;;;;;;13.55;8.25;;;;;;;11.86;100.00;95875.44;5021800;28;20073;-75
2021/09/05 07:16:30;;;;;;;14.23;8.35;;;;;;;11.83;100.00;95865.41;5027714;28;20040;-76
2021/09/05 07:18:55;;;;;;;17.73;9.70;;;;;;;11.83;100.00;95870.69;5026041;28;20049;-79
2021/09/05 07:21:21;;;;;;;13.60;8.95;;;;;;;11.93;100.00;95878.59;5027752;28;20491;-77
2021/09/05 07:23:46;;;;;;;14.80;9.13;;;;;;;11.94;100.00;95872.28;5025463;28;20041;-78
2021/09/05 07:26:12;;;;;;;14.75;8.98;;;;;;;12.00;100.00;95872.28;5025342;28;20771;-78
2021/09/05 07:28:37;;;;;;;15.93;9.15;;;;;;;12.11;100.00;95879.06;5023954;28;20041;-76
2021/09/05 07:31:04;;;;;;;16.67;9.68;;;;;;;12.13;100.00;95884.88;5033805;28;20050;-80
2021/09/05 07:33:30;;;;;;;15.50;8.90;;;;;;;12.23;100.00;95879.56;5032873;28;20481;-79
2021/09/05 07:35:56;;;;;;;16.60;8.85;;;;;;;12.33;100.00;95877.94;5031076;28;20052;-80
2021/09/05 07:38:21;;;;;;;14.45;8.45;;;;;;;13.27;94.04;95877.84;5016963;28;20045;-79
2021/09/05 07:40:46;;;;;;;13.88;8.35;;;;;;;13.75;92.25;95879.03;5009526;28;20053;-80
2021/09/05 07:43:12;;;;;;;13.10;8.00;;;;;;;13.73;91.88;95887.25;5027466;28;20125;-78
2021/09/05 07:45:38;;;;;;;14.57;8.57;;;;;;;13.83;91.94;95879.25;5030575;28;20041;-81
2021/09/05 07:48:03;;;;;;;14.60;8.70;;;;;;;13.74;91.92;95883.56;5032684;28;20052;-77
2021/09/05 07:50:29;;;;;;;13.35;8.25;;;;;;;13.68;92.12;95885.47;5030557;28;20042;-80
2021/09/05 07:52:54;;;;;;;14.02;8.68;;;;;;;13.69;92.39;95881.75;5026791;28;20073;-79
2021/09/05 07:55:20;;;;;;;12.02;7.80;;;;;;;14.06;88.54;95886.66;5010541;28;20128;-82
2021/09/05 07:57:46;;;;;;;15.48;8.23;;;;;;;14.04;90.13;95882.44;5029054;28;20514;-78
2021/09/05 08:00:12;;;;;;;13.77;7.75;;;;;;;14.09;89.71;95888.75;5011282;28;20518;-82
2021/09/05 08:02:37;;;;;;;14.07;8.27;;;;;;;14.73;86.25;95892.72;5020427;28;20054;-80
2021/09/05 08:05:04;;;;;;;12.40;7.80;;;;;;;15.11;84.05;95891.16;5012127;28;20087;-80
2021/09/05 08:07:29;;;;;;;13.23;7.65;;;;;;;15.14;82.38;95885.25;5030992;28;20048;-80
2021/09/05 08:09:54;;;;;;;11.27;7.40;;;;;;;15.20;82.17;95895.50;4998695;28;20045;-79
2021/09/05 08:12:20;;;;;;;13.90;7.80;;;;;;;15.05;83.28;95893.88;5029595;28;20702;-80
2021/09/05 08:14:45;;;;;;;13.50;7.65;;;;;;;15.03;82.39;95890.72;5032135;28;20095;-80
2021/09/05 08:17:11;;;;;;;12.13;7.85;;;;;;;14.80;85.79;95897.69;5013212;28;20037;-80
2021/09/05 08:19:36;;;;;;;15.48;7.93;;;;;;;14.61;86.13;95900.31;5012808;28;20061;-80
2021/09/05 08:22:02;;;;;;;12.88;8.45;;;;;;;14.53;85.92;95893.00;5026326;28;20045;-79
2021/09/05 08:24:28;;;;;;;14.60;8.32;;;;;;;14.66;85.30;95900.25;5028633;28;20108;-78
2021/09/05 08:26:54;;;;;;;12.88;7.53;;;;;;;14.57;85.31;95901.94;5013435;28;20041;-79
2021/09/05 08:29:19;;;;;;;15.00;8.52;;;;;;;14.75;84.52;95903.03;5027914;28;20503;-78
2021/09/05 08:31:44;;;;;;;12.07;7.15;;;;;;;14.91;83.17;95903.63;5017989;28;20077;-79
2021/09/05 08:34:10;;;;;;;14.35;7.20;;;;;;;14.84;82.87;95903.19;5010391;28;20045;-79
2021/09/05 08:36:36;;;;;;;13.07;8.00;;;;;;;15.16;81.43;95899.03;5012639;28;20473;-79
2021/09/05 08:39:01;;;;;;;12.95;7.85;;;;;;;15.08;80.63;95897.81;5031962;28;20056;-78
2021/09/05 08:41:27;;;;;;;11.60;7.22;;;;;;;15.19;80.59;95901.09;5024401;28;20041;-77
2021/09/05 08:43:52;;;;;;;13.70;7.38;;;;;;;15.20;79.99;95902.66;5028853;28;20048;-83
2021/09/05 08:46:19;;;;;;;12.77;7.25;;;;;;;15.45;79.55;95906.00;5029136;28;20525;-80
2021/09/05 08:48:48;;;;;;;11.98;7.45;;;;;;;15.44;80.87;95902.53;5026396;28;20037;-79
2021/09/05 08:51:14;;;;;;;12.98;7.20;;;;;;;15.34;82.90;95906.19;5022971;28;20070;-78
2021/09/05 08:53:40;;;;;;;17.55;7.93;;;;;;;15.41;81.11;95901.28;5027824;28;20116;-77
2021/09/05 08:56:06;;;;;;;12.57;6.90;;;;;;;15.36;81.38;95903.22;5031593;28;20046;-80
2021/09/05 08:58:31;;;;;;;12.25;7.38;;;;;;;15.41;79.03;95895.97;5032083;28;20048;-79
2021/09/05 09:00:56;;;;;;;13.63;7.85;;;;;;;15.47;80.92;95898.53;5027543;28;20103;-80
2021/09/05 09:03:24;;;;;;;14.27;7.47;;;;;;;15.48;82.04;95905.41;5031633;28;20049;-78
2021/09/05 09:05:54;;;;;;;15.30;8.20;;;;;;;15.92;78.19;95904.94;5028854;28;20107;-80
2021/09/05 09:08:21;;;;;;;12.73;7.53;;;;;;;16.20;75.80;95914.78;5027148;28;20053;-79
2021/09/05 09:10:58;;;;;;;13.02;7.40;;;;;;;16.34;75.52;95904.94;5026940;28;20049;-78
2021/09/05 09:13:26;;;;;;;13.73;6.75;;;;;;;16.26;78.56;95908.28;5030524;28;20041;-80
2021/09/05 09:15:52;;;;;;;12.85;7.20;;;;;;;16.43;74.51;95908.50;5028710;28;20045;-80
2021/09/05 09:18:29;;;;;;;10.85;6.95;;;;;;;16.39;74.78;95902.19;5004469;28;20050;-78
2021/09/05 09:20:57;;;;;;;11.48;6.75;;;;;;;16.54;75.15;95902.97;5022261;28;20041;-80
2021/09/05 09:23:33;;;;;;;11.52;6.18;;;;;;;16.62;72.19;95899.59;5027684;28;20053;-79
2021/09/05 09:26:10;;;;;;;13.18;6.72;;;;;;;16.79;69.69;95899.78;5031818;28;20033;-77
2021/09/05 09:28:36;;;;;;;13.18;7.22;;;;;;;16.79;72.85;95897.13;5011701;28;20054;-77
2021/09/05 09:31:11;;;;;;;12.50;7.25;;;;;;;16.93;72.98;95898.97;5004965;28;20426;-77
2021/09/05 09:33:37;;;;;;;11.75;6.60;;;;;;;17.35;74.12;95904.91;5028305;28;20048;-79
2021/09/05 09:36:04;;;;;;;12.00;6.20;;;;;;;17.62;71.65;95896.00;5028768;28;20049;-76
2021/09/05 09:38:31;;;;;;;12.18;7.05;;;;;;;17.95;69.95;95900.25;5021272;28;20042;-78
2021/09/05 09:41:16;;;;;;;12.00;6.80;;;;;;;18.15;67.82;95891.72;5030097;28;20041;-77
2021/09/05 09:43:56;;;;;;;11.68;6.78;;;;;;;17.98;68.59;95892.44;5029617;28;20801;-77
2021/09/05 09:46:24;;;;;;;10.68;7.05;;;;;;;17.90;68.37;95897.69;5027018;28;20623;-76
2021/09/05 09:48:52;;;;;;;9.75;6.80;;;;;;;17.92;68.31;95900.88;5015045;28;20438;-78
2021/09/05 09:51:18;;;;;;;10.60;6.18;;;;;;;18.02;69.99;95900.59;5022512;28;20116;-78
2021/09/05 09:53:45;;;;;;;12.95;6.10;;;;;;;18.49;68.64;95897.47;5017961;28;20046;-78
2021/09/05 09:56:16;;;;;;;10.57;6.07;;;;;;;19.02;64.15;95895.66;5030095;28;20099;-78
2021/09/05 09:58:41;;;;;;;10.48;6.70;;;;;;;19.29;63.82;95897.19;5022890;28;20581;-79
2021/09/05 10:01:08;;;;;;;9.88;5.97;;;;;;;19.55;64.13;95891.84;5013266;28;20080;-80
2021/09/05 10:03:36;;;;;;;12.15;6.40;;;;;;;19.86;63.56;95887.38;5028607;28;20053;-81
2021/09/05 10:06:02;;;;;;;10.60;6.28;;;;;;;19.86;64.82;95890.84;5010619;28;20574;-79
2021/09/05 10:08:30;;;;;;;8.90;5.97;;;;;;;20.04;65.36;95894.22;5027733;28;20051;-78
2021/09/05 10:10:58;;;;;;;9.00;6.10;;;;;;;19.99;63.80;95897.06;5023339;28;20056;-81
2021/09/05 10:13:31;;;;;;;10.30;6.45;;;;;;;20.24;61.93;95898.06;5023968;28;20065;-76
2021/09/05 10:15:57;;;;;;;9.20;6.15;;;;;;;20.78;59.96;95894.00;5020923;28;20046;-76
2021/09/05 10:18:24;;;;;;;10.20;6.50;;;;;;;21.10;59.51;95883.69;5019106;28;20029;-81
2021/09/05 10:20:50;;;;;;;9.50;6.05;;;;;;;21.32;58.83;95884.44;5029996;28;20065;-77
2021/09/05 10:23:30;;;;;;;15.52;6.47;;;;;;;21.37;58.71;95887.69;5024992;28;20040;-78
2021/09/05 10:26:03;;;;;;;10.38;6.75;;;;;;;21.64;58.19;95885.59;5010811;28;20072;-77
2021/09/05 10:28:40;;;;;;;10.43;6.75;;;;;;;21.33;58.56;95886.03;5019570;28;20103;-80
2021/09/05 10:31:11;;;;;;;9.63;6.10;;;;;;;22.36;58.34;95876.41;5018150;28;20088;-76
2021/09/05 10:33:39;;;;;;;11.10;5.88;;;;;;;22.44;58.03;95878.16;5016723;28;20041;-78
2021/09/05 10:36:08;;;;;;;9.93;6.00;;;;;;;22.94;54.99;95879.66;5022088;28;20049;-77
2021/09/05 10:38:40;;;;;;;8.85;6.30;;;;;;;22.52;54.62;95879.97;5008341;28;20127;-77
2021/09/05 10:41:20;;;;;;;8.43;5.57;;;;;;;23.16;52.21;95874.91;5026470;28;20627;-77
2021/09/05 10:43:48;;;;;;;8.95;6.30;;;;;;;23.47;51.97;95873.44;5022665;28;20045;-77
2021/09/05 10:46:26;;;;;;;11.80;5.93;;;;;;;23.38;52.49;95870.91;5027485;28;20042;-80
2021/09/05 10:49:00;;;;;;;9.07;6.43;;;;;;;22.84;54.46;95875.53;5015307;28;20074;-81
2021/09/05 10:51:27;;;;;;;10.15;6.10;;;;;;;23.82;53.38;95872.75;5024363;28;20494;-82
2021/09/05 10:54:00;;;;;;;9.02;6.10;;;;;;;23.79;52.40;95873.47;5002925;28;20050;-79
2021/09/05 10:56:27;;;;;;;11.90;6.43;;;;;;;23.46;51.68;95871.84;5023967;28;20042;-80
2021/09/05 10:58:56;;;;;;;16.80;6.47;;;;;;;23.30;52.24;95872.63;5021665;28;20133;-79
2021/09/05 11:01:39;;;;;;;14.63;6.70;;;;;;;24.35;49.73;95867.94;5017681;28;20042;-79
2021/09/05 11:04:11;;;;;;;8.88;6.22;;;;;;;24.99;51.10;95867.75;5023548;28;20177;-80
2021/09/05 11:06:44;;;;;;;8.77;5.80;;;;;;;25.20;48.75;95866.63;5009855;28;20043;-81
2021/09/05 11:09:25;;;;;;;12.60;5.97;;;;;;;24.66;47.77;95871.69;5013129;28;20489;-76
2021/09/05 11:12:15;;;;;;;9.90;6.60;;;;;;;25.50;47.86;95868.75;5028394;28;20042;-82
2021/09/05 11:14:45;;;;;;;7.95;5.78;;;;;;;24.83;46.59;95864.34;5030045;28;20038;-82
2021/09/05 11:17:11;;;;;;;8.40;5.43;;;;;;;24.24;47.13;95872.28;5032183;28;20537;-80
2021/09/05 11:19:46;;;;;;;11.60;5.38;;;;;;;24.68;46.59;95874.81;5017788;28;20132;-82
2021/09/05 11:22:13;;;;;;;6.72;4.70;;;;;;;26.87;41.03;95865.50;5023715;28;20042;-84
2021/09/05 11:24:39;;;;;;;6.75;5.03;;;;;;;27.17;41.21;95867.38;5025468;28;20120;-80
2021/09/05 11:27:10;;;;;;;7.88;5.50;;;;;;;25.49;42.83;95870.66;5030143;28;20152;-82
2021/09/05 11:29:36;;;;;;;10.25;6.10;;;;;;;25.03;44.81;95863.22;5027150;28;20514;-83